Time;durP1;ratioP1;P1;durP2;ratioP2;P2;SDS_P1;SDS_P2;PMS_P1;PMS_P2;Temp;Humidity;BMP_temperature;BMP_pressure;BME280_temperature;BME280_humidity;BME280_pressure;Samples;Min_cycle;Max_cycle;Signal;HPM_P1;HPM_P2
2024/01/10 00:01:05;;;;;;;66.20;27.10;;;;;;;;;;4970336;28;20030;-80
2024/01/10 00:03:30;;;;;;;59.17;24.47;;;;;;;;;;4978902;28;20046;-80
2024/01/10 00:05:55;;;;;;;73.90;30.03;;;;;;;;;;4978196;28;20027;-79
2024/01/10 00:08:21;;;;;;;54.93;24.40;;;;;;;;;;4969671;28;20506;-79
2024/01/10 00:10:46;;;;;;;64.13;25.13;;;;;;;;;;4978396;28;20475;-80
2024/01/10 00:13:11;;;;;;;64.53;24.60;;;;;;;;;;4983501;28;20705;-80
2024/01/10 00:15:36;;;;;;;65.70;26.13;;;;;;;;;;4980757;28;20059;-79
2024/01/10 00:18:02;;;;;;;56.20;23.33;;;;;;;;;;4978941;28;20396;-80
2024/01/10 00:20:27;;;;;;;57.90;25.30;;;;;;;;;;4975786;28;20037;-77
2024/01/10 00:22:52;;;;;;;56.97;24.03;;;;;;;;;;4983816;28;20027;-78
2024/01/10 00:25:17;;;;;;;58.70;24.63;;;;;;;;;;4984225;28;20117;-77
2024/01/10 00:27:42;;;;;;;58.03;23.13;;;;;;;;;;4980596;28;20042;-78
2024/01/10 00:30:08;;;;;;;57.17;24.03;;;;;;;;;;4982416;28;20059;-78
2024/01/10 00:32:34;;;;;;;59.23;23.77;;;;;;;;;;4979433;28;20065;-77
2024/01/10 00:34:59;;;;;;;57.43;25.20;;;;;;;;;;4980966;28;20035;-78
2024/01/10 00:37:24;;;;;;;56.50;24.07;;;;;;;;;;4986257;28;20041;-78
2024/01/10 00:39:49;;;;;;;61.37;25.37;;;;;;;;;;4980953;28;20100;-78
2024/01/10 00:42:14;;;;;;;65.10;24.90;;;;;;;;;;4989371;28;20039;-78
2024/01/10 00:44:39;;;;;;;59.33;23.73;;;;;;;;;;4978568;28;20456;-79
2024/01/10 00:47:04;;;;;;;62.90;24.07;;;;;;;;;;4977795;28;20038;-80
2024/01/10 00:49:30;;;;;;;53.83;22.93;;;;;;;;;;4979350;28;20498;-80
2024/01/10 00:51:55;;;;;;;50.80;22.50;;;;;;;;;;4968623;28;20034;-80
2024/01/10 00:54:20;;;;;;;56.23;23.37;;;;;;;;;;4983576;28;20446;-80
2024/01/10 00:56:45;;;;;;;58.40;22.20;;;;;;;;;;4986614;28;20026;-79
2024/01/10 00:59:11;;;;;;;53.27;21.77;;;;;;;;;;4966985;28;20050;-80
2024/01/10 01:01:36;;;;;;;53.33;21.63;;;;;;;;;;4981601;28;20431;-80
2024/01/10 01:04:02;;;;;;;50.17;21.07;;;;;;;;;;4974872;28;20590;-81
2024/01/10 01:06:27;;;;;;;55.30;22.40;;;;;;;;;;4975865;28;20034;-81
2024/01/10 01:08:52;;;;;;;45.33;19.30;;;;;;;;;;4981602;28;20038;-81
2024/01/10 01:11:17;;;;;;;50.97;20.20;;;;;;;;;;4992911;28;20116;-80
2024/01/10 01:13:42;;;;;;;50.97;19.63;;;;;;;;;;4976924;28;20034;-80
2024/01/10 01:16:08;;;;;;;49.23;21.57;;;;;;;;;;4979564;28;20423;-80
2024/01/10 01:18:34;;;;;;;44.10;18.70;;;;;;;;;;4971126;28;20038;-79
2024/01/10 01:20:59;;;;;;;50.30;19.77;;;;;;;;;;4985385;28;20045;-79
2024/01/10 01:23:24;;;;;;;57.40;22.00;;;;;;;;;;4975396;28;20069;-79
2024/01/10 01:25:50;;;;;;;47.47;19.90;;;;;;;;;;4981748;28;20443;-79
2024/01/10 01:28:15;;;;;;;61.93;22.00;;;;;;;;;;4978973;28;20033;-80
2024/01/10 01:30:41;;;;;;;54.13;20.87;;;;;;;;;;4980817;28;20030;-80
2024/01/10 01:33:06;;;;;;;50.27;20.27;;;;;;;;;;4984761;28;20456;-80
2024/01/10 01:35:31;;;;;;;50.30;19.67;;;;;;;;;;4985882;28;20038;-80
2024/01/10 01:37:56;;;;;;;44.00;18.63;;;;;;;;;;4978446;28;20067;-80
2024/01/10 01:40:21;;;;;;;48.50;18.67;;;;;;;;;;4983471;28;20044;-79
2024/01/10 01:42:47;;;;;;;48.77;20.47;;;;;;;;;;4978947;28;20037;-79
2024/01/10 01:45:13;;;;;;;50.53;20.37;;;;;;;;;;4983714;28;20034;-80
2024/01/10 01:47:39;;;;;;;45.83;19.70;;;;;;;;;;4982734;28;20380;-79
2024/01/10 01:50:05;;;;;;;48.30;19.77;;;;;;;;;;4979734;28;20053;-80
2024/01/10 01:52:31;;;;;;;47.07;19.90;;;;;;;;;;4973142;28;20039;-79
2024/01/10 01:54:56;;;;;;;54.13;21.53;;;;;;;;;;4978237;28;20092;-79
2024/01/10 01:57:22;;;;;;;44.07;18.53;;;;;;;;;;4965045;28;20550;-79
2024/01/10 01:59:47;;;;;;;49.63;19.87;;;;;;;;;;4968495;28;20510;-79
2024/01/10 02:02:12;;;;;;;57.70;23.60;;;;;;;;;;4969288;28;20042;-79
2024/01/10 02:04:38;;;;;;;54.47;23.27;;;;;;;;;;4981635;28;20046;-80
2024/01/10 02:07:03;;;;;;;50.90;19.93;;;;;;;;;;4979948;28;20354;-80
2024/01/10 02:09:28;;;;;;;49.87;19.57;;;;;;;;;;4975957;28;20042;-80
2024/01/10 02:11:54;;;;;;;51.50;21.50;;;;;;;;;;4979587;28;20039;-79
2024/01/10 02:14:19;;;;;;;46.63;19.27;;;;;;;;;;4980049;28;20030;-77
2024/01/10 02:16:44;;;;;;;48.23;20.30;;;;;;;;;;4972835;28;20031;-78
2024/01/10 02:19:20;;;;;;;57.10;22.33;;;;;;;;;;4967482;28;20045;-80
2024/01/10 02:21:45;;;;;;;54.20;21.90;;;;;;;;;;4985165;28;20030;-80
2024/01/10 02:24:10;;;;;;;52.97;22.13;;;;;;;;;;4976408;28;20495;-80
2024/01/10 02:26:35;;;;;;;52.27;21.97;;;;;;;;;;4980975;28;20035;-80
2024/01/10 02:29:01;;;;;;;56.13;20.87;;;;;;;;;;4982520;28;20035;-81
2024/01/10 02:31:27;;;;;;;63.43;23.97;;;;;;;;;;4969091;28;20508;-80
2024/01/10 02:33:52;;;;;;;57.60;23.20;;;;;;;;;;4977617;28;20407;-80
2024/01/10 02:36:17;;;;;;;50.07;21.37;;;;;;;;;;4981707;28;20042;-80
2024/01/10 02:38:42;;;;;;;54.47;21.90;;;;;;;;;;4976968;28;20034;-80
2024/01/10 02:41:08;;;;;;;60.43;23.43;;;;;;;;;;4979975;28;20046;-80
2024/01/10 02:43:33;;;;;;;52.43;21.03;;;;;;;;;;4986165;28;20041;-80
2024/01/10 02:45:58;;;;;;;49.50;19.83;;;;;;;;;;4986847;28;20038;-80
2024/01/10 02:48:24;;;;;;;58.27;22.90;;;;;;;;;;4984205;28;20105;-80
2024/01/10 02:50:49;;;;;;;53.30;21.10;;;;;;;;;;4975249;28;20483;-80
2024/01/10 02:53:14;;;;;;;46.07;19.70;;;;;;;;;;4980244;28;20061;-80
2024/01/10 02:55:40;;;;;;;47.03;19.10;;;;;;;;;;4986577;28;20034;-80
2024/01/10 02:58:05;;;;;;;45.67;18.93;;;;;;;;;;4971872;28;20038;-79
2024/01/10 03:00:30;;;;;;;51.27;20.93;;;;;;;;;;4981254;28;20042;-79
2024/01/10 03:02:55;;;;;;;54.77;19.93;;;;;;;;;;4990670;28;20030;-79
2024/01/10 03:05:20;;;;;;;46.80;20.40;;;;;;;;;;4987633;28;20121;-80
2024/01/10 03:07:45;;;;;;;53.17;20.67;;;;;;;;;;4978388;28;20093;-80
2024/01/10 03:10:11;;;;;;;57.03;23.00;;;;;;;;;;4981861;28;20050;-81
2024/01/10 03:12:37;;;;;;;53.70;20.20;;;;;;;;;;4991125;28;20038;-80
2024/01/10 03:15:03;;;;;;;51.03;22.37;;;;;;;;;;4974500;28;20032;-80
2024/01/10 03:17:28;;;;;;;54.90;21.17;;;;;;;;;;4989846;28;20030;-79
2024/01/10 03:19:54;;;;;;;56.53;22.40;;;;;;;;;;4983915;28;20038;-80
2024/01/10 03:22:19;;;;;;;54.03;21.33;;;;;;;;;;4978561;28;20443;-80
2024/01/10 03:24:44;;;;;;;55.30;20.87;;;;;;;;;;4976780;28;20034;-80
2024/01/10 03:27:09;;;;;;;57.77;20.97;;;;;;;;;;4989022;28;20046;-80
2024/01/10 03:29:35;;;;;;;53.93;20.90;;;;;;;;;;4974465;28;20035;-79
2024/01/10 03:32:00;;;;;;;51.50;20.37;;;;;;;;;;4966757;28;20141;-79
2024/01/10 03:34:25;;;;;;;55.93;21.70;;;;;;;;;;4965482;28;20050;-80
2024/01/10 03:36:50;;;;;;;55.10;21.37;;;;;;;;;;4984605;28;20039;-79
2024/01/10 03:39:15;;;;;;;58.77;22.37;;;;;;;;;;4988478;28;20455;-79
2024/01/10 03:41:40;;;;;;;54.33;21.10;;;;;;;;;;4991218;28;20038;-80
2024/01/10 03:44:06;;;;;;;52.57;21.00;;;;;;;;;;4981789;28;20459;-80
2024/01/10 03:46:31;;;;;;;54.77;20.93;;;;;;;;;;4974652;28;20070;-79
2024/01/10 03:48:57;;;;;;;57.90;20.97;;;;;;;;;;4978237;28;20037;-79
2024/01/10 03:51:22;;;;;;;51.97;22.27;;;;;;;;;;4985544;28;20041;-80
2024/01/10 03:53:49;;;;;;;53.43;21.77;;;;;;;;;;4975007;28;20031;-80
2024/01/10 03:56:14;;;;;;;58.00;22.77;;;;;;;;;;4970574;28;20034;-79
2024/01/10 03:58:39;;;;;;;50.03;20.40;;;;;;;;;;4981841;28;20534;-80
2024/01/10 04:01:08;;;;;;;57.57;23.33;;;;;;;;;;4980923;28;20120;-80
2024/01/10 04:03:33;;;;;;;53.83;21.97;;;;;;;;;;4979784;28;20035;-80
2024/01/10 04:05:58;;;;;;;59.67;23.73;;;;;;;;;;4987407;28;20031;-80
2024/01/10 04:08:24;;;;;;;54.53;22.33;;;;;;;;;;4984058;28;20034;-81
2024/01/10 04:10:49;;;;;;;64.07;23.63;;;;;;;;;;4980820;28;20030;-80
2024/01/10 04:13:14;;;;;;;53.17;22.13;;;;;;;;;;4985707;28;20027;-80
2024/01/10 04:15:39;;;;;;;51.10;21.17;;;;;;;;;;4973312;28;20034;-81
2024/01/10 04:18:04;;;;;;;53.00;20.87;;;;;;;;;;4976366;28;20487;-80
2024/01/10 04:20:29;;;;;;;54.00;22.63;;;;;;;;;;4985919;28;20061;-80
2024/01/10 04:22:55;;;;;;;58.87;22.37;;;;;;;;;;4982451;28;20035;-80
2024/01/10 04:25:20;;;;;;;57.87;21.40;;;;;;;;;;4986900;28;20506;-79
2024/01/10 04:27:46;;;;;;;52.53;22.07;;;;;;;;;;4978585;28;20035;-81
2024/01/10 04:30:11;;;;;;;53.90;21.40;;;;;;;;;;4983233;28;20031;-80
2024/01/10 04:32:36;;;;;;;53.43;21.40;;;;;;;;;;4969808;28;20534;-80
2024/01/10 04:35:01;;;;;;;53.63;21.07;;;;;;;;;;4966304;28;20562;-79
2024/01/10 04:37:27;;;;;;;66.37;23.73;;;;;;;;;;4962786;28;20130;-79
2024/01/10 04:39:52;;;;;;;52.27;21.70;;;;;;;;;;4978411;28;20031;-79
2024/01/10 04:42:17;;;;;;;65.57;25.87;;;;;;;;;;4983088;28;20095;-79
2024/01/10 04:44:42;;;;;;;57.63;21.73;;;;;;;;;;4980754;28;20038;-79
2024/01/10 04:47:07;;;;;;;55.23;21.43;;;;;;;;;;4981977;28;20038;-79
2024/01/10 04:49:33;;;;;;;60.53;23.13;;;;;;;;;;4983825;28;20503;-79
2024/01/10 04:51:58;;;;;;;52.37;20.70;;;;;;;;;;4983588;28;20045;-79
2024/01/10 04:54:23;;;;;;;54.80;23.97;;;;;;;;;;4984903;28;20037;-80
2024/01/10 04:56:48;;;;;;;60.13;22.77;;;;;;;;;;4982737;28;20052;-80
2024/01/10 04:59:13;;;;;;;56.67;21.20;;;;;;;;;;4979676;28;20504;-79
2024/01/10 05:01:39;;;;;;;53.73;20.77;;;;;;;;;;4986709;28;20041;-79
2024/01/10 05:04:04;;;;;;;52.90;21.50;;;;;;;;;;4986552;28;20504;-80
2024/01/10 05:06:29;;;;;;;55.20;21.27;;;;;;;;;;4986147;28;20038;-79
2024/01/10 05:08:57;;;;;;;58.73;23.40;;;;;;;;;;4984602;28;20630;-79
2024/01/10 05:11:24;;;;;;;54.90;23.03;;;;;;;;;;4979150;28;20023;-79
2024/01/10 05:13:49;;;;;;;62.03;24.27;;;;;;;;;;4972358;28;20585;-79
2024/01/10 05:16:14;;;;;;;59.43;24.07;;;;;;;;;;4990721;28;20065;-79
2024/01/10 05:18:39;;;;;;;60.17;22.37;;;;;;;;;;4985059;28;20054;-79
2024/01/10 05:21:05;;;;;;;61.93;25.17;;;;;;;;;;4963303;28;20057;-78
2024/01/10 05:23:30;;;;;;;60.27;24.03;;;;;;;;;;4978066;28;20384;-79
2024/01/10 05:25:55;;;;;;;63.93;25.47;;;;;;;;;;4980869;28;20563;-79
2024/01/10 05:28:21;;;;;;;66.17;24.60;;;;;;;;;;4976314;28;20037;-79
2024/01/10 05:30:46;;;;;;;64.80;26.13;;;;;;;;;;4979689;28;20088;-78
2024/01/10 05:33:11;;;;;;;62.40;22.90;;;;;;;;;;4985208;28;20031;-79
2024/01/10 05:35:37;;;;;;;54.80;22.23;;;;;;;;;;4983550;28;20034;-79
2024/01/10 05:38:03;;;;;;;62.40;24.70;;;;;;;;;;4978844;28;20030;-79
2024/01/10 05:40:30;;;;;;;55.17;23.30;;;;;;;;;;4972420;28;20031;-79
2024/01/10 05:42:55;;;;;;;57.43;23.40;;;;;;;;;;4971050;28;20039;-78
2024/01/10 05:45:20;;;;;;;53.73;21.97;;;;;;;;;;4972220;28;20031;-79
2024/01/10 05:47:45;;;;;;;52.20;22.10;;;;;;;;;;4968591;28;20066;-79
2024/01/10 05:50:11;;;;;;;57.53;21.90;;;;;;;;;;4980334;28;20518;-78
2024/01/10 05:52:36;;;;;;;63.17;24.50;;;;;;;;;;4971642;28;20085;-79
2024/01/10 05:55:02;;;;;;;60.40;24.53;;;;;;;;;;4985117;28;20462;-79
2024/01/10 05:57:27;;;;;;;65.83;25.87;;;;;;;;;;4981102;28;20038;-78
2024/01/10 05:59:56;;;;;;;69.37;26.07;;;;;;;;;;4969422;28;20070;-79
2024/01/10 06:02:21;;;;;;;57.63;23.87;;;;;;;;;;4984562;28;20062;-80
2024/01/10 06:04:46;;;;;;;52.87;21.63;;;;;;;;;;4982583;28;20046;-80
2024/01/10 06:07:12;;;;;;;57.07;21.93;;;;;;;;;;4978886;28;20058;-80
2024/01/10 06:09:37;;;;;;;59.53;24.53;;;;;;;;;;4976898;28;20109;-79
2024/01/10 06:12:03;;;;;;;63.00;24.20;;;;;;;;;;4965156;28;20565;-79
2024/01/10 06:14:28;;;;;;;64.87;24.53;;;;;;;;;;4982296;28;20042;-79
2024/01/10 06:16:53;;;;;;;63.70;24.73;;;;;;;;;;4982517;28;20650;-79
2024/01/10 06:19:18;;;;;;;79.37;32.10;;;;;;;;;;4973348;28;20030;-79
2024/01/10 06:21:43;;;;;;;94.27;37.40;;;;;;;;;;4958974;28;20518;-80
2024/01/10 06:24:08;;;;;;;75.27;29.57;;;;;;;;;;4981232;28;20054;-80
2024/01/10 06:26:34;;;;;;;77.33;27.30;;;;;;;;;;4970719;28;20035;-79
2024/01/10 06:28:59;;;;;;;68.13;26.43;;;;;;;;;;4981146;28;20038;-79
2024/01/10 06:31:24;;;;;;;62.37;24.30;;;;;;;;;;4979553;28;20038;-79
2024/01/10 06:33:49;;;;;;;57.70;22.77;;;;;;;;;;4972458;28;20045;-79
2024/01/10 06:36:14;;;;;;;58.53;25.07;;;;;;;;;;4978481;28;20081;-79
2024/01/10 06:38:39;;;;;;;62.93;25.93;;;;;;;;;;4984876;28;20053;-79
2024/01/10 06:41:13;;;;;;;60.53;25.27;;;;;;;;;;4980953;28;20042;-81
2024/01/10 06:43:39;;;;;;;55.07;22.20;;;;;;;;;;4965163;28;20042;-79
2024/01/10 06:46:04;;;;;;;68.80;25.30;;;;;;;;;;4965467;28;20046;-79
2024/01/10 06:48:29;;;;;;;60.60;23.67;;;;;;;;;;4975722;28;20126;-79
2024/01/10 06:50:55;;;;;;;64.70;25.73;;;;;;;;;;4973909;28;20041;-80
2024/01/10 06:53:20;;;;;;;81.00;31.13;;;;;;;;;;4977828;28;20042;-79
2024/01/10 06:55:45;;;;;;;90.47;35.47;;;;;;;;;;4972383;28;20046;-79
2024/01/10 06:58:11;;;;;;;70.50;28.57;;;;;;;;;;4962756;28;20039;-79
2024/01/10 07:00:38;;;;;;;66.03;27.43;;;;;;;;;;4972676;28;20162;-79
2024/01/10 07:03:03;;;;;;;68.33;26.43;;;;;;;;;;4974776;28;20041;-79
2024/01/10 07:05:28;;;;;;;61.00;25.40;;;;;;;;;;4980037;28;20035;-80
2024/01/10 07:07:53;;;;;;;66.83;25.73;;;;;;;;;;4967468;28;20042;-79
2024/01/10 07:10:18;;;;;;;57.17;23.93;;;;;;;;;;4975191;28;20025;-79
2024/01/10 07:12:44;;;;;;;66.90;26.00;;;;;;;;;;4981599;28;20055;-80
2024/01/10 07:15:09;;;;;;;62.80;25.57;;;;;;;;;;4967804;28;20065;-80
2024/01/10 07:17:35;;;;;;;59.27;25.03;;;;;;;;;;4978543;28;20039;-79
2024/01/10 07:20:00;;;;;;;57.13;24.40;;;;;;;;;;4980394;28;20050;-79
2024/01/10 07:22:25;;;;;;;64.90;27.23;;;;;;;;;;4970338;28;20068;-79
2024/01/10 07:24:50;;;;;;;62.57;25.00;;;;;;;;;;4974197;28;20056;-79
2024/01/10 07:27:15;;;;;;;64.57;28.07;;;;;;;;;;4974762;28;20030;-80
2024/01/10 07:29:41;;;;;;;70.83;27.10;;;;;;;;;;4972037;28;20126;-79
2024/01/10 07:32:10;;;;;;;63.23;25.77;;;;;;;;;;4964723;28;20089;-79
2024/01/10 07:34:36;;;;;;;63.27;26.10;;;;;;;;;;4966522;28;20487;-79
2024/01/10 07:37:02;;;;;;;57.80;23.07;;;;;;;;;;4981633;28;20046;-79
2024/01/10 07:39:28;;;;;;;64.17;26.27;;;;;;;;;;4974072;28;20030;-79
2024/01/10 07:41:53;;;;;;;66.00;28.17;;;;;;;;;;4967431;28;20483;-79
2024/01/10 07:44:19;;;;;;;62.40;23.73;;;;;;;;;;4974591;28;20027;-79
2024/01/10 07:46:44;;;;;;;67.43;25.77;;;;;;;;;;4963337;28;20035;-79
2024/01/10 07:49:09;;;;;;;71.80;28.27;;;;;;;;;;4968801;28;20471;-79
2024/01/10 07:51:34;;;;;;;61.87;26.00;;;;;;;;;;4981557;28;20022;-79
2024/01/10 07:54:07;;;;;;;65.37;26.53;;;;;;;;;;4979328;28;20037;-79
2024/01/10 07:56:32;;;;;;;56.17;23.87;;;;;;;;;;4982299;28;20030;-78
2024/01/10 07:58:57;;;;;;;66.73;26.07;;;;;;;;;;4975017;28;20033;-77
2024/01/10 08:01:22;;;;;;;62.97;25.57;;;;;;;;;;4975447;28;20579;-77
2024/01/10 08:03:47;;;;;;;72.03;27.67;;;;;;;;;;4983997;28;20034;-77
2024/01/10 08:06:13;;;;;;;67.80;24.93;;;;;;;;;;4980754;28;20031;-78
2024/01/10 08:08:39;;;;;;;66.70;25.27;;;;;;;;;;4968765;28;20109;-78
2024/01/10 08:11:04;;;;;;;76.60;29.73;;;;;;;;;;4974898;28;20499;-77
2024/01/10 08:13:29;;;;;;;74.23;28.50;;;;;;;;;;4980427;28;20027;-78
2024/01/10 08:15:54;;;;;;;67.77;25.87;;;;;;;;;;4982507;28;20546;-77
2024/01/10 08:18:19;;;;;;;63.27;26.17;;;;;;;;;;4979720;28;20558;-78
2024/01/10 08:20:45;;;;;;;75.60;29.03;;;;;;;;;;4979949;28;20063;-78
2024/01/10 08:23:10;;;;;;;65.50;25.83;;;;;;;;;;4982148;28;20058;-78
2024/01/10 08:25:35;;;;;;;66.60;26.60;;;;;;;;;;4980825;28;20034;-78
2024/01/10 08:28:00;;;;;;;66.23;26.47;;;;;;;;;;4977729;28;20402;-77
2024/01/10 08:30:28;;;;;;;75.03;27.30;;;;;;;;;;4962023;28;20026;-77
2024/01/10 08:32:53;;;;;;;70.07;27.00;;;;;;;;;;4977267;28;20033;-78
2024/01/10 08:35:19;;;;;;;66.53;26.70;;;;;;;;;;4970701;28;20038;-77
2024/01/10 08:37:44;;;;;;;69.73;27.03;;;;;;;;;;4978639;28;20038;-78
2024/01/10 08:40:11;;;;;;;66.70;26.40;;;;;;;;;;4979045;28;20045;-76
2024/01/10 08:42:37;;;;;;;65.73;24.77;;;;;;;;;;4986882;28;20161;-78
2024/01/10 08:45:03;;;;;;;66.80;26.90;;;;;;;;;;4984542;28;20098;-77
2024/01/10 08:47:31;;;;;;;67.33;25.70;;;;;;;;;;4969325;28;20030;-77
2024/01/10 08:49:56;;;;;;;67.33;26.33;;;;;;;;;;4975250;28;20039;-78
2024/01/10 08:52:21;;;;;;;75.50;29.70;;;;;;;;;;4984435;28;20061;-78
2024/01/10 08:54:46;;;;;;;66.20;28.03;;;;;;;;;;4959352;28;20138;-77
2024/01/10 08:57:11;;;;;;;81.50;29.63;;;;;;;;;;4983344;28;20022;-78
2024/01/10 08:59:40;;;;;;;93.83;34.93;;;;;;;;;;4987035;28;20026;-78
2024/01/10 09:02:07;;;;;;;121.60;44.00;;;;;;;;;;4975064;28;20194;-78
2024/01/10 09:04:32;;;;;;;111.00;41.70;;;;;;;;;;4979588;28;20057;-78
2024/01/10 09:06:58;;;;;;;86.10;34.03;;;;;;;;;;4986220;28;20074;-78
2024/01/10 09:09:23;;;;;;;81.93;31.80;;;;;;;;;;4965713;28;20104;-77
2024/01/10 09:11:48;;;;;;;68.53;29.77;;;;;;;;;;4989562;28;20022;-78
2024/01/10 09:14:13;;;;;;;77.37;30.83;;;;;;;;;;4983409;28;20030;-78
2024/01/10 09:16:38;;;;;;;68.47;28.27;;;;;;;;;;4984708;28;20115;-78
2024/01/10 09:19:04;;;;;;;72.77;31.10;;;;;;;;;;4981917;28;20065;-78
2024/01/10 09:21:30;;;;;;;66.57;26.13;;;;;;;;;;4975520;28;20418;-78
2024/01/10 09:23:55;;;;;;;87.30;35.00;;;;;;;;;;4980099;28;20033;-77
2024/01/10 09:26:21;;;;;;;113.30;42.10;;;;;;;;;;4974438;28;20035;-79
2024/01/10 09:28:48;;;;;;;95.10;37.23;;;;;;;;;;4984733;28;20073;-79
2024/01/10 09:31:14;;;;;;;75.67;31.93;;;;;;;;;;4979968;28;20059;-78
2024/01/10 09:33:39;;;;;;;75.57;29.17;;;;;;;;;;4968437;28;20526;-77
2024/01/10 09:36:04;;;;;;;62.70;27.37;;;;;;;;;;4983054;28;20118;-78
2024/01/10 09:38:34;;;;;;;59.70;26.57;;;;;;;;;;4985312;28;20049;-78
2024/01/10 09:41:02;;;;;;;62.17;25.57;;;;;;;;;;4978365;28;20035;-78
2024/01/10 09:43:27;;;;;;;66.20;26.73;;;;;;;;;;4987150;28;20418;-78
2024/01/10 09:45:53;;;;;;;68.87;28.30;;;;;;;;;;4979573;28;20035;-78
2024/01/10 09:48:19;;;;;;;64.47;26.67;;;;;;;;;;4967683;28;20039;-78
2024/01/10 09:50:44;;;;;;;74.47;29.70;;;;;;;;;;4982375;28;20034;-78
2024/01/10 09:53:14;;;;;;;69.30;29.63;;;;;;;;;;4959571;28;20030;-78
2024/01/10 09:55:40;;;;;;;62.70;28.50;;;;;;;;;;4984941;28;20046;-78
2024/01/10 09:58:05;;;;;;;64.00;27.23;;;;;;;;;;4964659;28;20105;-77
2024/01/10 10:00:33;;;;;;;69.07;28.53;;;;;;;;;;4980722;28;20041;-78
2024/01/10 10:02:59;;;;;;;72.20;29.23;;;;;;;;;;4982291;28;20030;-78
2024/01/10 10:05:26;;;;;;;72.03;28.60;;;;;;;;;;4979489;28;20060;-78
2024/01/10 10:07:55;;;;;;;65.63;28.60;;;;;;;;;;4956989;28;20117;-78
2024/01/10 10:10:21;;;;;;;70.70;29.03;;;;;;;;;;4987061;28;20065;-78
2024/01/10 10:12:47;;;;;;;59.67;27.57;;;;;;;;;;4988396;28;20023;-78
2024/01/10 10:15:14;;;;;;;69.53;28.87;;;;;;;;;;4975097;28;20033;-78
2024/01/10 10:17:45;;;;;;;70.17;28.93;;;;;;;;;;4976824;28;20073;-78
2024/01/10 10:20:11;;;;;;;67.93;28.15;;;;;;;;;;4961402;28;20076;-78
2024/01/10 10:22:37;;;;;;;71.97;30.00;;;;;;;;;;4987983;28;20034;-78
2024/01/10 10:25:03;;;;;;;68.10;29.47;;;;;;;;;;4979443;28;20039;-78
2024/01/10 10:27:29;;;;;;;69.73;30.17;;;;;;;;;;4980717;28;20046;-78
2024/01/10 10:29:54;;;;;;;61.77;28.30;;;;;;;;;;4979463;28;20027;-78
2024/01/10 10:32:19;;;;;;;73.23;30.43;;;;;;;;;;4980952;28;20105;-78
2024/01/10 10:34:44;;;;;;;67.63;27.30;;;;;;;;;;4962281;28;20029;-78
2024/01/10 10:37:09;;;;;;;65.17;27.33;;;;;;;;;;4980864;28;20077;-75
2024/01/10 10:39:34;;;;;;;67.27;28.57;;;;;;;;;;4982321;28;20117;-78
2024/01/10 10:42:00;;;;;;;66.90;28.80;;;;;;;;;;4981617;28;20038;-78
2024/01/10 10:44:27;;;;;;;59.33;27.53;;;;;;;;;;4977801;28;20050;-78
2024/01/10 10:46:53;;;;;;;60.33;27.10;;;;;;;;;;4973689;28;20034;-78
2024/01/10 10:49:23;;;;;;;67.73;28.10;;;;;;;;;;4987747;28;20057;-77
2024/01/10 10:51:49;;;;;;;64.17;27.97;;;;;;;;;;4969439;28;20030;-78
2024/01/10 10:54:15;;;;;;;60.37;27.40;;;;;;;;;;4974364;28;20134;-78
2024/01/10 10:56:43;;;;;;;58.93;24.37;;;;;;;;;;4978592;28;20067;-77
2024/01/10 10:59:09;;;;;;;52.83;25.17;;;;;;;;;;4976820;28;20034;-79
2024/01/10 11:04:52;;;;;;;62.00;25.70;;;;;;;;;;4965574;28;20042;-77
2024/01/10 11:07:17;;;;;;;63.00;27.00;;;;;;;;;;4979448;28;20023;-77
2024/01/10 11:09:45;;;;;;;59.47;26.83;;;;;;;;;;4975922;28;20027;-77
2024/01/10 11:12:23;;;;;;;67.37;29.40;;;;;;;;;;4977536;28;20030;-75
2024/01/10 11:14:54;;;;;;;62.07;25.40;;;;;;;;;;4983943;28;20109;-76
2024/01/10 11:17:28;;;;;;;61.50;26.93;;;;;;;;;;4973473;28;20029;-77
2024/01/10 11:20:12;;;;;;;54.23;24.50;;;;;;;;;;4970031;28;20506;-77
2024/01/10 11:23:04;;;;;;;58.43;25.37;;;;;;;;;;4986717;28;20031;-75
2024/01/10 11:25:29;;;;;;;54.20;25.20;;;;;;;;;;4982450;28;20121;-77
2024/01/10 11:27:55;;;;;;;58.10;26.93;;;;;;;;;;4966857;28;20069;-77
2024/01/10 11:30:39;;;;;;;53.73;25.77;;;;;;;;;;4979807;28;20035;-77
2024/01/10 11:33:18;;;;;;;58.60;25.60;;;;;;;;;;4987577;28;20023;-77
2024/01/10 11:36:03;;;;;;;60.03;26.70;;;;;;;;;;4984289;28;20418;-77
2024/01/10 11:38:29;;;;;;;52.70;25.00;;;;;;;;;;4968258;28;20035;-76
2024/01/10 11:40:55;;;;;;;61.53;26.63;;;;;;;;;;4984035;28;20081;-77
2024/01/10 11:43:20;;;;;;;61.03;26.70;;;;;;;;;;4985428;28;20066;-77
2024/01/10 11:45:58;;;;;;;63.60;30.23;;;;;;;;;;4981883;28;20050;-78
2024/01/10 11:48:30;;;;;;;63.27;27.40;;;;;;;;;;4964197;28;20030;-77
2024/01/10 11:50:57;;;;;;;62.67;26.97;;;;;;;;;;4977758;28;20139;-77
2024/01/10 11:53:39;;;;;;;59.27;25.50;;;;;;;;;;4980780;28;20547;-77
2024/01/10 11:56:11;;;;;;;58.88;26.15;;;;;;;;;;4977737;28;20038;-77
2024/01/10 11:58:52;;;;;;;58.05;25.90;;;;;;;;;;4981578;28;20089;-77
2024/01/10 12:01:20;;;;;;;56.00;26.17;;;;;;;;;;4982818;28;20042;-79
2024/01/10 12:03:46;;;;;;;55.37;26.60;;;;;;;;;;4954478;28;20034;-78
2024/01/10 12:06:12;;;;;;;48.43;23.00;;;;;;;;;;4985674;28;20038;-76
2024/01/10 12:08:41;;;;;;;54.80;26.27;;;;;;;;;;4976373;28;20510;-79
2024/01/10 12:11:06;;;;;;;54.33;25.10;;;;;;;;;;4975244;28;20035;-78
2024/01/10 12:13:32;;;;;;;54.63;24.67;;;;;;;;;;4994771;28;20081;-77
2024/01/10 12:15:57;;;;;;;52.43;24.27;;;;;;;;;;4986786;28;20053;-78
2024/01/10 12:18:26;;;;;;;56.00;24.03;;;;;;;;;;4973936;28;20556;-78
2024/01/10 12:20:51;;;;;;;57.23;23.57;;;;;;;;;;4969345;28;20415;-77
2024/01/10 12:23:17;;;;;;;51.57;24.50;;;;;;;;;;4971042;28;20026;-78
2024/01/10 12:25:42;;;;;;;54.10;23.97;;;;;;;;;;4984146;28;20060;-77
2024/01/10 12:28:07;;;;;;;52.23;24.80;;;;;;;;;;4975732;28;20022;-77
2024/01/10 12:30:32;;;;;;;50.70;22.47;;;;;;;;;;4983645;28;20452;-77
2024/01/10 12:33:01;;;;;;;49.97;23.73;;;;;;;;;;4967621;28;20031;-77
2024/01/10 12:35:42;;;;;;;49.20;22.47;;;;;;;;;;4970991;28;20039;-77
2024/01/10 12:38:16;;;;;;;65.13;32.03;;;;;;;;;;4964655;28;20034;-77
2024/01/10 12:40:44;;;;;;;58.53;27.17;;;;;;;;;;4961102;28;20052;-78
2024/01/10 12:43:10;;;;;;;51.20;24.37;;;;;;;;;;4982924;28;20034;-76
2024/01/10 12:45:36;;;;;;;51.73;24.27;;;;;;;;;;4984743;28;20061;-76
2024/01/10 12:48:04;;;;;;;46.80;22.77;;;;;;;;;;4988700;28;20467;-78
2024/01/10 12:50:31;;;;;;;46.43;21.73;;;;;;;;;;4961117;28;20043;-77
2024/01/10 12:52:57;;;;;;;46.67;21.70;;;;;;;;;;4982616;28;20152;-77
2024/01/10 12:55:25;;;;;;;47.77;21.40;;;;;;;;;;4983080;28;20117;-77
2024/01/10 12:57:50;;;;;;;43.73;20.37;;;;;;;;;;4974844;28;20416;-74
2024/01/10 13:00:16;;;;;;;52.33;23.27;;;;;;;;;;4982153;28;20035;-77
2024/01/10 13:02:41;;;;;;;38.30;19.33;;;;;;;;;;4981195;28;20041;-78
2024/01/10 13:05:09;;;;;;;47.20;21.00;;;;;;;;;;4967574;28;20034;-77
2024/01/10 13:07:35;;;;;;;49.97;23.08;;;;;;;;;;4990348;28;20030;-77
2024/01/10 13:10:00;;;;;;;46.47;22.00;;;;;;;;;;4973123;28;20026;-76
2024/01/10 13:12:25;;;;;;;46.33;22.13;;;;;;;;;;4983889;28;20074;-77
2024/01/10 13:14:50;;;;;;;43.13;21.23;;;;;;;;;;4978046;28;20026;-78
2024/01/10 13:17:16;;;;;;;48.25;22.63;;;;;;;;;;4980923;28;20085;-77
2024/01/10 13:19:43;;;;;;;74.80;34.58;;;;;;;;;;4983212;28;20048;-78
2024/01/10 13:22:09;;;;;;;59.00;28.23;;;;;;;;;;4987618;28;20118;-77
2024/01/10 13:24:34;;;;;;;54.75;25.00;;;;;;;;;;4983802;28;20475;-77
2024/01/10 13:26:59;;;;;;;46.33;22.17;;;;;;;;;;4969145;28;20041;-77
2024/01/10 13:29:24;;;;;;;47.85;23.30;;;;;;;;;;4982831;28;20026;-78
2024/01/10 13:31:50;;;;;;;53.00;25.27;;;;;;;;;;4976534;28;20026;-77
2024/01/10 13:34:15;;;;;;;51.72;24.38;;;;;;;;;;4984509;28;20113;-77
2024/01/10 13:36:41;;;;;;;51.30;24.60;;;;;;;;;;4988784;28;20022;-77
2024/01/10 13:39:07;;;;;;;50.28;22.55;;;;;;;;;;4985172;28;20030;-77
2024/01/10 13:41:32;;;;;;;49.28;23.38;;;;;;;;;;4981236;28;20045;-77
2024/01/10 13:43:57;;;;;;;52.35;24.35;;;;;;;;;;4963517;28;20026;-77
2024/01/10 13:46:22;;;;;;;43.65;21.90;;;;;;;;;;4971738;28;20022;-77
2024/01/10 13:48:48;;;;;;;45.80;21.27;;;;;;;;;;4976173;28;20027;-78
2024/01/10 13:51:13;;;;;;;46.95;22.25;;;;;;;;;;4982999;28;20115;-77
2024/01/10 13:53:38;;;;;;;46.65;21.42;;;;;;;;;;4984155;28;20038;-77
2024/01/10 13:56:03;;;;;;;49.95;25.15;;;;;;;;;;4963394;28;20435;-78
2024/01/10 13:58:28;;;;;;;48.43;22.63;;;;;;;;;;4976445;28;20057;-78
2024/01/10 14:00:54;;;;;;;51.00;25.00;;;;;;;;;;4986644;28;20034;-77
2024/01/10 14:03:19;;;;;;;56.30;23.67;;;;;;;;;;4980807;28;20086;-78
2024/01/10 14:05:44;;;;;;;48.23;23.30;;;;;;;;;;4976386;28;20565;-78
2024/01/10 14:08:10;;;;;;;73.72;33.78;;;;;;;;;;4981397;28;20042;-77
2024/01/10 14:10:36;;;;;;;90.18;39.55;;;;;;;;;;4970181;28;20411;-78
2024/01/10 14:13:01;;;;;;;67.70;32.90;;;;;;;;;;4978350;28;20030;-77